メインページ
METAR-TAF:

METAR-TAF

空港 :

チンギスハーン国際空港

ウランバートル, モンゴル国

緯度: 47-55N, 経度: 106-52E, 海抜: 1306m

現時点の気象観測

当レポートは22分前の11:30(UTC)に作成
無風
気温 -18°C
湿度 59%
気圧 1026 hPa
視程10km以上
1,500メートル以下は雲なし、積乱雲なし

METAR: ZMUB 141130Z 00000MPS CAVOK M18/M24 Q1026 NOSIG RMK QFE661.2 58

時間: 19:52 (11:52 UTC)

予報

当レポートは1時間22分前の10:30(UTC)に作成
予報は14日の 12時(UTC)から 15日の 18時(UTC)まで有効
変向風 4kt
視程10km以上
高度10000ftの雲は散在している
14日の 21時(UTC)から 14日の 23時(UTC)まで徐々に
視程: 6000m
15日の 04時(UTC)から 15日の 06時(UTC)まで徐々に
視程10km以上

TAF: ZMUB 141030Z 1412/1518 VRB02MPS 9999 SCT100 TNM23/1423Z TXM08/1507Z BECMG 1421/1423 6000 BECMG 1504/1506 9999 NSW

4,000以上の空港の気象観測と天気予報(METAR報とTAF報)

利用可能な観測所は地図上に黄色い丸と赤い丸で示す。

丸の上にカーソルを重ねると観測所名を参照できる。

次にクリックすると気象観測と天気予報を参照できる。

マップの切り替え:黒色「×」印の緑ボタンをクリックして拡大、「-」印の緑ボタンをクリックして縮小、緑色の三角印をクリックして隣りの地図に切り替え


METAR-TAF: